Time;durP1;ratioP1;P1;durP2;ratioP2;P2;SDS_P1;SDS_P2;PMS_P1;PMS_P2;Temp;Humidity;BMP_temperature;BMP_pressure;BME280_temperature;BME280_humidity;BME280_pressure;Samples;Min_cycle;Max_cycle;Signal;HPM_P1;HPM_P2
2024/03/28 00:56:13;;;;;;;0.30;0.20;;;15.30;99.90;;;;;;5079118;28;20510;-75
2024/03/28 00:58:38;;;;;;;0.30;0.20;;;15.20;99.90;;;;;;5084871;28;20453;-74
2024/03/28 01:01:04;;;;;;;1.90;1.60;;;15.30;99.90;;;;;;5085140;28;20177;-74
2024/03/28 01:03:30;;;;;;;0.30;0.20;;;15.30;99.90;;;;;;5084912;28;20661;-75
2024/03/28 01:05:59;;;;;;;0.30;0.20;;;15.30;99.90;;;;;;5086269;28;20176;-74
2024/03/28 01:08:25;;;;;;;0.67;0.67;;;15.30;99.90;;;;;;5084217;28;20981;-75
2024/03/28 01:10:51;;;;;;;0.30;0.20;;;15.30;99.90;;;;;;5086088;28;20512;-74
2024/03/28 01:13:16;;;;;;;1.00;0.90;;;15.30;99.90;;;;;;5085987;28;20808;-75
2024/03/28 01:15:42;;;;;;;9.00;8.57;;;15.30;99.90;;;;;;5086510;28;20203;-75
2024/03/28 01:18:09;;;;;;;0.30;0.30;;;15.30;99.90;;;;;;5085577;28;20207;-77
2024/03/28 01:20:35;;;;;;;0.30;0.30;;;15.30;99.90;;;;;;5084699;28;20179;-77
2024/03/28 01:23:01;;;;;;;1.50;1.40;;;15.40;99.90;;;;;;5085882;28;20441;-77
2024/03/28 01:25:27;;;;;;;0.30;0.20;;;15.40;99.90;;;;;;5085605;28;20598;-77
2024/03/28 01:27:52;;;;;;;0.30;0.20;;;15.40;99.90;;;;;;5085934;28;20480;-75
2024/03/28 01:30:18;;;;;;;0.30;0.27;;;15.40;99.90;;;;;;5084339;28;20176;-74
2024/03/28 01:32:43;;;;;;;0.30;0.20;;;15.30;99.90;;;;;;5084293;28;20215;-75
2024/03/28 01:35:09;;;;;;;0.30;0.30;;;15.40;99.90;;;;;;5085903;28;20297;-75
2024/03/28 01:37:35;;;;;;;0.30;0.20;;;15.40;99.90;;;;;;5085838;28;20216;-75
2024/03/28 01:40:01;;;;;;;0.73;0.70;;;15.40;99.90;;;;;;5085533;28;20172;-75
2024/03/28 01:42:27;;;;;;;0.40;0.40;;;15.40;99.90;;;;;;5083824;28;20200;-75
2024/03/28 01:44:54;;;;;;;0.30;0.20;;;15.40;99.90;;;;;;5084425;28;20735;-75
2024/03/28 01:47:21;;;;;;;0.40;0.40;;;15.40;99.90;;;;;;5085331;28;20436;-75
2024/03/28 01:49:47;;;;;;;0.30;0.20;;;15.50;99.90;;;;;;5084325;28;20405;-75
2024/03/28 01:52:13;;;;;;;0.30;0.30;;;15.50;99.90;;;;;;5085407;28;20474;-75
2024/03/28 01:54:39;;;;;;;5.30;1.23;;;15.40;99.90;;;;;;5085069;28;20471;-75
2024/03/28 01:57:07;;;;;;;0.30;0.20;;;15.40;99.90;;;;;;5085351;28;20405;-75
2024/03/28 01:59:34;;;;;;;0.30;0.20;;;15.40;99.90;;;;;;5085776;28;20432;-75
2024/03/28 02:02:00;;;;;;;0.30;0.20;;;15.40;99.90;;;;;;5083104;28;20424;-75
2024/03/28 02:04:26;;;;;;;0.30;0.20;;;15.30;99.90;;;;;;5083683;28;20494;-77
2024/03/28 02:06:52;;;;;;;2.00;1.90;;;15.30;99.90;;;;;;5085051;28;20405;-75
2024/03/28 02:09:21;;;;;;;0.50;0.50;;;15.40;99.90;;;;;;5084071;28;20702;-75
2024/03/28 02:11:47;;;;;;;0.30;0.20;;;15.40;99.90;;;;;;5083373;28;20347;-75
2024/03/28 02:14:13;;;;;;;0.30;0.20;;;15.40;99.90;;;;;;5085481;28;20486;-75
2024/03/28 02:16:39;;;;;;;0.30;0.20;;;15.40;99.90;;;;;;5083782;28;20192;-75
2024/03/28 02:19:05;;;;;;;0.30;0.20;;;15.30;99.90;;;;;;5085487;28;20207;-75
2024/03/28 02:21:31;;;;;;;0.30;0.20;;;15.20;99.90;;;;;;5084896;28;20173;-75
2024/03/28 02:23:57;;;;;;;0.30;0.20;;;15.10;99.90;;;;;;5085460;28;20440;-75
2024/03/28 02:26:23;;;;;;;0.30;0.20;;;15.10;99.90;;;;;;5084970;28;20405;-75
2024/03/28 02:28:50;;;;;;;4.93;4.73;;;15.00;99.90;;;;;;5085064;28;20448;-75
2024/03/28 02:31:15;;;;;;;0.30;0.20;;;15.00;99.90;;;;;;5087225;28;20512;-75
2024/03/28 02:33:42;;;;;;;0.30;0.20;;;15.00;99.90;;;;;;5087423;28;20576;-75
2024/03/28 02:36:08;;;;;;;0.50;0.50;;;15.00;99.90;;;;;;5089048;28;20435;-75
2024/03/28 02:38:34;;;;;;;0.30;0.30;;;14.90;99.90;;;;;;5088474;28;20432;-75
2024/03/28 02:41:00;;;;;;;0.30;0.20;;;14.80;99.90;;;;;;5087772;28;20499;-75
2024/03/28 02:43:25;;;;;;;0.30;0.30;;;14.70;99.90;;;;;;5088633;28;20853;-75
2024/03/28 02:45:51;;;;;;;0.30;0.20;;;14.60;99.90;;;;;;5089077;28;20488;-75
2024/03/28 02:48:20;;;;;;;0.30;0.20;;;14.60;99.90;;;;;;5088631;28;20196;-75
2024/03/28 02:50:45;;;;;;;0.30;0.20;;;14.60;99.90;;;;;;5087454;28;20460;-75
2024/03/28 02:53:12;;;;;;;0.30;0.20;;;14.50;99.90;;;;;;5088450;28;20997;-75
2024/03/28 02:55:37;;;;;;;0.30;0.20;;;14.50;99.90;;;;;;5087207;28;20239;-75
2024/03/28 02:58:03;;;;;;;0.30;0.20;;;14.50;99.90;;;;;;5087125;28;20906;-75
2024/03/28 03:00:29;;;;;;;0.30;0.20;;;14.50;99.90;;;;;;5088832;28;20388;-75
2024/03/28 03:02:54;;;;;;;0.30;0.20;;;14.50;99.90;;;;;;5086947;28;20436;-75
2024/03/28 03:05:21;;;;;;;0.30;0.20;;;14.50;99.90;;;;;;5087611;28;20181;-75
2024/03/28 03:07:47;;;;;;;2.00;1.90;;;14.40;99.90;;;;;;5086807;28;20208;-75
2024/03/28 03:10:14;;;;;;;1.17;0.80;;;14.30;99.90;;;;;;5088433;28;21008;-75
2024/03/28 03:12:39;;;;;;;0.30;0.20;;;14.20;99.90;;;;;;5088116;28;20476;-75
2024/03/28 03:15:05;;;;;;;0.83;0.83;;;14.20;99.90;;;;;;5088251;28;20671;-75
2024/03/28 03:17:31;;;;;;;0.30;0.20;;;14.10;99.90;;;;;;5086937;28;20501;-75
2024/03/28 03:19:58;;;;;;;0.30;0.30;;;14.10;99.90;;;;;;5087170;28;20440;-75
2024/03/28 03:22:25;;;;;;;0.60;0.60;;;14.00;99.90;;;;;;5086561;28;20357;-75
2024/03/28 03:24:58;;;;;;;0.30;0.20;;;13.90;99.90;;;;;;5086675;28;20497;-74
2024/03/28 03:27:32;;;;;;;0.30;0.20;;;13.80;99.90;;;;;;5087797;28;20449;-75
2024/03/28 03:35:30;;;;;;;0.30;0.20;;;13.80;99.90;;;;;;5087993;28;20467;-75
2024/03/28 03:37:56;;;;;;;0.30;0.20;;;13.80;99.90;;;;;;5086368;28;20468;-75
2024/03/28 03:40:23;;;;;;;0.40;0.40;;;13.80;99.90;;;;;;5086636;28;21190;-74
2024/03/28 03:42:49;;;;;;;0.30;0.20;;;13.70;99.90;;;;;;5087477;28;20436;-75
2024/03/28 03:45:14;;;;;;;0.30;0.20;;;13.70;99.90;;;;;;5086594;28;21024;-76
2024/03/28 03:47:40;;;;;;;0.30;0.20;;;13.70;99.90;;;;;;5087531;28;20227;-75
2024/03/28 03:50:06;;;;;;;0.30;0.20;;;13.70;99.90;;;;;;5087577;28;20374;-75
2024/03/28 03:52:33;;;;;;;0.30;0.20;;;13.70;99.90;;;;;;5087215;28;20193;-76
2024/03/28 03:54:59;;;;;;;4.00;2.53;;;13.70;99.90;;;;;;5087693;28;20512;-76
2024/03/28 03:57:25;;;;;;;0.30;0.20;;;13.70;99.90;;;;;;5087492;28;20861;-77
2024/03/28 03:59:50;;;;;;;0.30;0.30;;;13.70;99.90;;;;;;5086282;28;20673;-76
2024/03/28 04:02:16;;;;;;;1.70;1.60;;;13.70;99.90;;;;;;5087048;28;20304;-77
2024/03/28 04:04:42;;;;;;;0.30;0.20;;;13.70;99.90;;;;;;5087176;28;20199;-77
2024/03/28 04:07:07;;;;;;;0.30;0.20;;;13.70;99.90;;;;;;5086070;28;20224;-76
2024/03/28 04:09:33;;;;;;;0.30;0.20;;;13.70;99.90;;;;;;5087309;28;20176;-75
2024/03/28 04:11:59;;;;;;;0.30;0.20;;;13.70;99.90;;;;;;5085608;28;20549;-74
2024/03/28 04:14:25;;;;;;;0.30;0.20;;;13.70;99.90;;;;;;5085615;28;20723;-75
2024/03/28 04:16:50;;;;;;;0.30;0.20;;;13.70;99.90;;;;;;5085396;28;20417;-75
2024/03/28 04:19:16;;;;;;;0.30;0.20;;;13.70;99.90;;;;;;5085590;28;20198;-75
2024/03/28 04:21:42;;;;;;;0.30;0.30;;;13.60;99.90;;;;;;5086531;28;20172;-76
2024/03/28 04:24:08;;;;;;;0.30;0.20;;;13.60;99.90;;;;;;5085684;28;20363;-75
2024/03/28 04:26:33;;;;;;;0.30;0.20;;;13.60;99.90;;;;;;5085120;28;20267;-75
2024/03/28 04:28:59;;;;;;;0.30;0.20;;;13.60;99.90;;;;;;5085535;28;20300;-74
2024/03/28 04:31:25;;;;;;;0.30;0.20;;;13.60;99.90;;;;;;5087164;28;20260;-75
2024/03/28 04:33:52;;;;;;;0.30;0.20;;;13.60;99.90;;;;;;5086501;28;20571;-75
2024/03/28 04:36:18;;;;;;;0.30;0.20;;;13.60;99.90;;;;;;5085403;28;20957;-75
2024/03/28 04:38:44;;;;;;;0.30;0.20;;;13.50;99.90;;;;;;5085082;28;20452;-75
2024/03/28 04:41:11;;;;;;;0.30;0.20;;;13.50;99.90;;;;;;5085202;28;20421;-75
2024/03/28 04:43:38;;;;;;;0.30;0.20;;;13.50;99.90;;;;;;5086619;28;20684;-75
2024/03/28 04:46:04;;;;;;;0.30;0.20;;;13.50;99.90;;;;;;5086482;28;20428;-76
2024/03/28 04:48:30;;;;;;;0.30;0.20;;;13.60;99.90;;;;;;5085234;28;20433;-76
2024/03/28 04:50:56;;;;;;;0.30;0.20;;;13.60;99.90;;;;;;5086518;28;20259;-76
2024/03/28 04:53:22;;;;;;;0.30;0.20;;;13.50;99.90;;;;;;5084185;28;20244;-75
2024/03/28 04:55:48;;;;;;;0.30;0.20;;;13.60;99.90;;;;;;5084725;28;20922;-74
2024/03/28 04:58:14;;;;;;;0.30;0.20;;;13.50;99.90;;;;;;5086085;28;20432;-76
2024/03/28 05:00:40;;;;;;;0.30;0.20;;;13.50;99.90;;;;;;5086053;28;20183;-75
2024/03/28 05:03:05;;;;;;;0.30;0.20;;;13.50;99.90;;;;;;5085907;28;20195;-75
2024/03/28 05:05:35;;;;;;;0.30;0.20;;;13.40;99.90;;;;;;5086329;28;20516;-75
2024/03/28 05:08:01;;;;;;;0.30;0.20;;;13.30;99.90;;;;;;5084866;28;20210;-75
2024/03/28 05:10:27;;;;;;;0.30;0.20;;;13.30;99.90;;;;;;5084187;28;20446;-74
2024/03/28 05:12:52;;;;;;;0.30;0.20;;;13.30;99.90;;;;;;5085451;28;20433;-76
2024/03/28 05:15:18;;;;;;;2.47;1.90;;;13.40;99.90;;;;;;5086278;28;20511;-76
2024/03/28 05:17:44;;;;;;;2.57;2.40;;;13.30;99.90;;;;;;5085404;28;20192;-76
2024/03/28 05:20:12;;;;;;;0.30;0.20;;;13.30;99.90;;;;;;5086019;28;20284;-75
2024/03/28 05:22:38;;;;;;;0.30;0.20;;;13.30;99.90;;;;;;5084017;28;20207;-75
2024/03/28 05:25:04;;;;;;;0.30;0.20;;;13.30;99.90;;;;;;5085824;28;20413;-76
2024/03/28 05:27:33;;;;;;;0.30;0.20;;;13.30;99.90;;;;;;5085711;28;20429;-76
2024/03/28 05:29:59;;;;;;;0.30;0.20;;;13.30;99.90;;;;;;5085994;28;20454;-76
2024/03/28 05:32:25;;;;;;;0.30;0.20;;;13.30;99.90;;;;;;5085172;28;20433;-75
2024/03/28 05:34:50;;;;;;;0.30;0.20;;;13.30;99.90;;;;;;5084269;28;20270;-76
2024/03/28 05:37:16;;;;;;;0.30;0.20;;;13.40;99.90;;;;;;5085517;28;20523;-75
2024/03/28 05:39:42;;;;;;;0.30;0.20;;;13.40;99.90;;;;;;5084140;28;20181;-76
2024/03/28 05:42:07;;;;;;;0.30;0.20;;;13.40;99.90;;;;;;5084001;28;20192;-74
2024/03/28 05:44:33;;;;;;;0.30;0.20;;;13.40;99.90;;;;;;5084657;28;20173;-75
2024/03/28 05:46:59;;;;;;;0.30;0.20;;;13.40;99.90;;;;;;5083074;28;20180;-76
2024/03/28 05:49:24;;;;;;;0.30;0.20;;;13.40;99.90;;;;;;5082711;28;20862;-75
2024/03/28 05:51:50;;;;;;;0.30;0.20;;;13.40;99.90;;;;;;5085456;28;20261;-75
2024/03/28 05:54:16;;;;;;;0.30;0.20;;;13.40;99.90;;;;;;5085027;28;20708;-76
2024/03/28 05:56:41;;;;;;;0.30;0.20;;;13.30;99.90;;;;;;5083618;28;20239;-76
2024/03/28 05:59:07;;;;;;;0.30;0.30;;;13.30;99.90;;;;;;5086101;28;20492;-76
2024/03/28 06:01:33;;;;;;;0.30;0.20;;;13.20;99.90;;;;;;5084961;28;20199;-76
2024/03/28 06:03:58;;;;;;;0.30;0.20;;;13.10;99.90;;;;;;5084483;28;20636;-76
2024/03/28 06:06:24;;;;;;;0.30;0.30;;;13.10;99.90;;;;;;5088628;28;20396;-76
2024/03/28 06:08:50;;;;;;;0.30;0.20;;;13.20;99.90;;;;;;5087105;28;20594;-75
2024/03/28 06:11:16;;;;;;;0.30;0.20;;;13.20;99.90;;;;;;5086734;28;20553;-76
2024/03/28 06:13:42;;;;;;;0.30;0.20;;;13.20;99.90;;;;;;5086223;28;20484;-74
2024/03/28 06:16:08;;;;;;;0.30;0.20;;;13.20;99.90;;;;;;5088521;28;20420;-75
2024/03/28 06:18:33;;;;;;;0.30;0.20;;;13.30;99.90;;;;;;5087820;28;20941;-76
2024/03/28 06:21:01;;;;;;;0.30;0.30;;;13.30;99.90;;;;;;5088244;28;20172;-74
2024/03/28 06:23:27;;;;;;;0.30;0.20;;;13.40;99.90;;;;;;5086173;28;20250;-75
2024/03/28 06:25:53;;;;;;;0.30;0.20;;;13.40;99.90;;;;;;5083600;28;20500;-76
2024/03/28 06:28:19;;;;;;;0.30;0.20;;;13.50;99.90;;;;;;5086771;28;20515;-76
2024/03/28 06:30:53;;;;;;;0.30;0.20;;;13.60;99.90;;;;;;5086917;28;21016;-75
2024/03/28 06:33:19;;;;;;;1.50;1.17;;;13.50;99.90;;;;;;5086203;28;20224;-76
2024/03/28 06:35:45;;;;;;;0.30;0.20;;;13.60;99.90;;;;;;5085816;28;20428;-76
2024/03/28 06:38:11;;;;;;;0.30;0.20;;;13.60;99.90;;;;;;5085380;28;20436;-77
2024/03/28 06:40:36;;;;;;;0.30;0.20;;;13.60;99.90;;;;;;5082984;28;20412;-76
2024/03/28 06:43:02;;;;;;;0.30;0.20;;;13.60;99.90;;;;;;5086442;28;20234;-76
2024/03/28 06:45:28;;;;;;;0.30;0.20;;;13.60;99.90;;;;;;5086684;28;20178;-76
2024/03/28 06:47:53;;;;;;;0.30;0.20;;;13.60;99.90;;;;;;5085800;28;20474;-77
2024/03/28 06:50:19;;;;;;;0.30;0.20;;;13.70;99.90;;;;;;5088618;28;20180;-77
2024/03/28 06:52:45;;;;;;;0.30;0.20;;;13.80;99.90;;;;;;5086321;28;20227;-78
2024/03/28 06:55:10;;;;;;;0.30;0.20;;;13.80;99.90;;;;;;5086358;28;20240;-77
2024/03/28 06:57:36;;;;;;;0.30;0.20;;;13.90;99.90;;;;;;5086094;28;20188;-78
2024/03/28 07:00:02;;;;;;;0.30;0.20;;;14.00;99.90;;;;;;5086233;28;20172;-76
2024/03/28 07:02:27;;;;;;;0.30;0.20;;;14.10;99.90;;;;;;5084084;28;20205;-76
2024/03/28 07:04:53;;;;;;;0.30;0.20;;;14.20;99.90;;;;;;5086024;28;20210;-76
2024/03/28 07:07:19;;;;;;;0.30;0.20;;;14.20;99.90;;;;;;5084386;28;20227;-77
2024/03/28 07:09:45;;;;;;;0.30;0.20;;;14.30;99.90;;;;;;5086841;28;20176;-77
2024/03/28 07:12:11;;;;;;;0.30;0.20;;;14.30;99.90;;;;;;5086805;28;20669;-77
2024/03/28 07:14:37;;;;;;;0.30;0.20;;;14.30;99.90;;;;;;5107563;27;20464;-76
2024/03/28 07:17:04;;;;;;;0.30;0.20;;;14.30;99.90;;;;;;5084799;28;20553;-76
2024/03/28 07:19:30;;;;;;;0.30;0.20;;;14.30;99.90;;;;;;5084476;28;20436;-75
2024/03/28 07:21:55;;;;;;;0.30;0.20;;;14.50;99.90;;;;;;5086067;28;20424;-76
2024/03/28 07:24:21;;;;;;;0.30;0.20;;;14.60;99.90;;;;;;5085703;28;20269;-76
2024/03/28 07:26:46;;;;;;;0.30;0.20;;;14.70;99.90;;;;;;5084707;28;20210;-76
2024/03/28 07:29:12;;;;;;;0.40;0.40;;;14.80;99.90;;;;;;5086743;28;20212;-76
2024/03/28 07:31:38;;;;;;;0.30;0.20;;;14.80;99.90;;;;;;5084463;28;20180;-75
2024/03/28 07:34:04;;;;;;;0.30;0.20;;;15.00;99.90;;;;;;5083693;28;20216;-75
2024/03/28 07:36:29;;;;;;;0.30;0.20;;;15.20;99.90;;;;;;5085317;28;20421;-75
2024/03/28 07:38:55;;;;;;;0.30;0.20;;;15.30;99.90;;;;;;5086955;28;20202;-75
2024/03/28 07:41:20;;;;;;;0.30;0.20;;;15.40;99.90;;;;;;5086042;28;20560;-75
2024/03/28 07:43:46;;;;;;;0.30;0.20;;;15.50;99.90;;;;;;5083356;28;20308;-75
2024/03/28 07:46:12;;;;;;;0.30;0.20;;;15.70;99.90;;;;;;5083582;28;20338;-76
2024/03/28 07:48:37;;;;;;;0.30;0.20;;;15.80;99.90;;;;;;5081499;28;20208;-76
2024/03/28 07:51:04;;;;;;;0.30;0.20;;;15.80;99.90;;;;;;5084008;28;20413;-76
2024/03/28 07:53:33;;;;;;;0.30;0.20;;;15.70;99.90;;;;;;5082535;28;20215;-76
2024/03/28 07:55:59;;;;;;;0.30;0.20;;;15.70;99.90;;;;;;5082892;28;20815;-76
2024/03/28 07:58:25;;;;;;;0.30;0.20;;;15.80;99.90;;;;;;5082168;28;20494;-76
2024/03/28 08:00:52;;;;;;;0.30;0.20;;;16.00;99.90;;;;;;5081241;28;20401;-76
2024/03/28 08:03:18;;;;;;;0.30;0.20;;;16.10;99.90;;;;;;5078766;28;20483;-77
2024/03/28 08:05:49;;;;;;;0.30;0.20;;;16.20;99.90;;;;;;5077507;28;20743;-77
2024/03/28 08:08:16;;;;;;;0.30;0.20;;;16.20;99.90;;;;;;5076919;28;21225;-76
2024/03/28 08:10:41;;;;;;;0.30;0.20;;;16.30;99.90;;;;;;5081211;28;20471;-78
2024/03/28 08:13:07;;;;;;;0.80;0.60;;;16.30;99.90;;;;;;5081126;28;20456;-75
2024/03/28 08:15:33;;;;;;;0.30;0.20;;;16.40;99.90;;;;;;5080629;28;20193;-76
2024/03/28 08:18:00;;;;;;;0.30;0.20;;;16.40;99.90;;;;;;5084465;28;20188;-77
2024/03/28 08:20:29;;;;;;;0.30;0.20;;;16.40;99.90;;;;;;5084340;28;20572;-76
2024/03/28 08:22:58;;;;;;;0.30;0.30;;;16.40;99.90;;;;;;5080006;28;20479;-76
2024/03/28 08:25:24;;;;;;;0.30;0.20;;;16.50;99.90;;;;;;5082060;28;20831;-77
2024/03/28 08:27:51;;;;;;;0.30;0.20;;;16.60;99.90;;;;;;5081254;28;20425;-75
2024/03/28 08:30:17;;;;;;;0.30;0.20;;;16.60;99.90;;;;;;5080809;28;20686;-75
2024/03/28 08:32:43;;;;;;;0.30;0.20;;;16.90;99.90;;;;;;5079632;28;20442;-76
2024/03/28 08:35:13;;;;;;;0.40;0.20;;;17.40;99.40;;;;;;5081148;28;20551;-73
2024/03/28 08:37:39;;;;;;;0.40;0.20;;;18.00;97.80;;;;;;5079707;28;20459;-73
2024/03/28 08:40:09;;;;;;;0.30;0.20;;;18.70;98.20;;;;;;5082696;28;20416;-73
2024/03/28 08:42:39;;;;;;;0.40;0.20;;;19.50;96.80;;;;;;5084068;28;20479;-74
2024/03/28 08:45:08;;;;;;;0.40;0.20;;;19.90;96.60;;;;;;5083877;28;20435;-74
2024/03/28 08:47:35;;;;;;;0.30;0.20;;;20.40;95.00;;;;;;5076800;28;20444;-74
2024/03/28 08:50:03;;;;;;;0.30;0.20;;;20.70;94.50;;;;;;5079119;28;20436;-74
2024/03/28 08:52:29;;;;;;;0.30;0.20;;;21.20;93.80;;;;;;5076416;28;20481;-74
2024/03/28 08:54:56;;;;;;;0.30;0.20;;;21.50;93.00;;;;;;5079634;28;20554;-74
2024/03/28 08:57:24;;;;;;;0.40;0.40;;;21.60;91.80;;;;;;5080502;28;20417;-74
2024/03/28 08:59:50;;;;;;;0.30;0.20;;;21.80;91.50;;;;;;5069704;28;20520;-74
2024/03/28 09:02:20;;;;;;;0.30;0.20;;;21.50;90.70;;;;;;5063625;28;20909;-74
2024/03/28 09:04:46;;;;;;;0.30;0.20;;;21.30;90.50;;;;;;5077450;28;20440;-74
2024/03/28 09:07:15;;;;;;;0.40;0.20;;;21.00;90.50;;;;;;5075331;28;20425;-73
2024/03/28 09:09:42;;;;;;;0.30;0.20;;;20.60;90.00;;;;;;5078414;28;20920;-73
2024/03/28 09:12:08;;;;;;;0.30;0.20;;;20.40;90.20;;;;;;5079461;28;20460;-74
2024/03/28 09:14:35;;;;;;;0.30;0.20;;;20.40;90.30;;;;;;5067655;28;20847;-74
2024/03/28 09:17:01;;;;;;;0.30;0.20;;;20.50;90.50;;;;;;5075299;28;20441;-74
2024/03/28 09:19:28;;;;;;;0.30;0.20;;;20.90;90.20;;;;;;5088744;28;20454;-74
2024/03/28 09:21:54;;;;;;;0.30;0.27;;;21.30;89.80;;;;;;5078617;28;20168;-75
2024/03/28 09:24:21;;;;;;;0.30;0.20;;;21.30;87.70;;;;;;5068874;28;20474;-74
2024/03/28 09:26:48;;;;;;;0.30;0.20;;;21.40;88.30;;;;;;5079613;28;20196;-73
2024/03/28 09:29:19;;;;;;;0.30;0.20;;;21.40;86.90;;;;;;5079620;28;20456;-74
2024/03/28 09:31:48;;;;;;;0.30;0.20;;;21.60;86.90;;;;;;5079364;28;20957;-73
2024/03/28 09:34:15;;;;;;;0.33;0.33;;;21.40;86.10;;;;;;5081910;28;20905;-74
2024/03/28 09:36:43;;;;;;;0.30;0.30;;;21.10;87.40;;;;;;5071865;28;20944;-74
2024/03/28 09:39:14;;;;;;;0.30;0.20;;;20.90;88.20;;;;;;5076733;28;20441;-73
2024/03/28 09:41:45;;;;;;;0.30;0.20;;;20.90;87.90;;;;;;5077349;28;20413;-74
2024/03/28 09:44:33;;;;;;;0.40;0.20;;;20.90;86.70;;;;;;5072201;28;20523;-74
2024/03/28 09:46:59;;;;;;;0.30;0.20;;;20.80;87.00;;;;;;5074078;28;20398;-73
2024/03/28 09:49:27;;;;;;;0.30;0.20;;;20.70;86.10;;;;;;5079792;28;20433;-74
2024/03/28 09:51:56;;;;;;;0.30;0.20;;;20.50;86.50;;;;;;5076558;28;20441;-74
2024/03/28 09:54:22;;;;;;;0.30;0.20;;;20.50;86.00;;;;;;5079362;28;20476;-74
2024/03/28 09:56:51;;;;;;;0.30;0.30;;;20.40;85.90;;;;;;5079606;28;20682;-74
2024/03/28 09:59:17;;;;;;;0.30;0.20;;;20.30;86.20;;;;;;5079497;28;20447;-74
2024/03/28 10:01:46;;;;;;;0.30;0.20;;;20.10;87.70;;;;;;5080360;28;20708;-73
2024/03/28 10:04:18;;;;;;;0.30;0.30;;;20.00;87.00;;;;;;5082416;28;20206;-73
2024/03/28 10:06:48;;;;;;;0.30;0.20;;;20.00;87.80;;;;;;5075052;28;20413;-73
2024/03/28 10:09:19;;;;;;;0.30;0.20;;;20.20;87.60;;;;;;5082672;28;20429;-73
2024/03/28 10:11:45;;;;;;;0.40;0.40;;;20.10;87.00;;;;;;5080671;28;20413;-74
2024/03/28 10:14:26;;;;;;;0.30;0.20;;;20.00;86.80;;;;;;5079169;28;21190;-74
2024/03/28 10:17:01;;;;;;;1.80;1.27;;;19.80;85.10;;;;;;5076778;28;20408;-74
2024/03/28 10:19:29;;;;;;;0.30;0.20;;;19.60;85.20;;;;;;5079829;28;20913;-74
2024/03/28 10:22:09;;;;;;;0.30;0.30;;;19.60;84.30;;;;;;5080359;28;21041;-74
2024/03/28 10:24:36;;;;;;;0.30;0.20;;;19.60;85.00;;;;;;5078871;28;20707;-74
2024/03/28 10:27:15;;;;;;;0.30;0.20;;;19.70;85.20;;;;;;5081728;28;20413;-74
2024/03/28 10:29:56;;;;;;;0.30;0.20;;;19.60;84.80;;;;;;5081410;28;20484;-74
2024/03/28 10:32:22;;;;;;;0.30;0.20;;;19.60;85.60;;;;;;5079766;28;20413;-75
2024/03/28 10:34:52;;;;;;;0.30;0.30;;;19.60;85.60;;;;;;5083671;28;20476;-73
2024/03/28 10:37:27;;;;;;;0.30;0.20;;;19.50;85.30;;;;;;5081177;28;20398;-73
2024/03/28 10:39:53;;;;;;;0.30;0.20;;;19.30;84.50;;;;;;5082776;28;20473;-73
2024/03/28 10:42:18;;;;;;;0.30;0.30;;;19.20;85.20;;;;;;5082425;28;20389;-73
2024/03/28 10:44:46;;;;;;;0.30;0.20;;;19.10;85.20;;;;;;5083131;28;20717;-73
2024/03/28 10:47:13;;;;;;;0.30;0.20;;;19.00;85.50;;;;;;5081986;28;20649;-73
2024/03/28 10:49:59;;;;;;;0.30;0.20;;;19.00;86.40;;;;;;5082997;28;20419;-73
2024/03/28 10:52:29;;;;;;;0.30;0.20;;;19.10;86.30;;;;;;5084429;28;20895;-73
2024/03/28 10:55:05;;;;;;;0.30;0.20;;;19.20;85.00;;;;;;5065781;28;20773;-73
2024/03/28 10:57:33;;;;;;;0.30;0.20;;;19.20;85.30;;;;;;5065885;28;20789;-74
2024/03/28 10:59:59;;;;;;;0.30;0.20;;;19.20;84.70;;;;;;5066730;28;20422;-73
2024/03/28 11:02:30;;;;;;;0.30;0.20;;;19.00;83.30;;;;;;5070196;28;20443;-73
2024/03/28 11:04:58;;;;;;;0.30;0.20;;;19.00;84.50;;;;;;5085024;28;20440;-73
2024/03/28 11:07:25;;;;;;;0.30;0.20;;;18.90;85.10;;;;;;5084836;28;20440;-73
2024/03/28 11:09:54;;;;;;;0.30;0.20;;;18.80;86.30;;;;;;5085633;28;20425;-73
2024/03/28 11:12:20;;;;;;;0.30;0.20;;;18.90;86.30;;;;;;5084390;28;20393;-73
2024/03/28 11:14:58;;;;;;;0.30;0.30;;;18.90;86.60;;;;;;5084107;28;20840;-73
2024/03/28 11:17:24;;;;;;;0.40;0.30;;;18.90;87.00;;;;;;5084877;28;20462;-73
2024/03/28 11:20:08;;;;;;;0.50;0.47;;;18.90;86.90;;;;;;5084305;28;20436;-75
2024/03/28 11:22:34;;;;;;;0.30;0.20;;;18.80;86.60;;;;;;5077678;28;20455;-74
2024/03/28 11:25:01;;;;;;;0.30;0.30;;;18.80;86.00;;;;;;5073379;28;20536;-73
2024/03/28 11:27:27;;;;;;;0.30;0.20;;;18.80;86.90;;;;;;5076906;28;21179;-73
2024/03/28 11:30:04;;;;;;;0.30;0.20;;;18.90;87.30;;;;;;5081822;28;20490;-73
2024/03/28 11:32:30;;;;;;;0.30;0.30;;;19.10;86.60;;;;;;5080423;28;20328;-73
2024/03/28 11:35:06;;;;;;;0.30;0.20;;;19.10;86.60;;;;;;5081494;28;20516;-73
2024/03/28 11:37:32;;;;;;;0.30;0.20;;;19.00;86.60;;;;;;5070273;28;20184;-73
2024/03/28 11:39:58;;;;;;;0.30;0.20;;;18.90;86.60;;;;;;5074924;28;20834;-73
2024/03/28 11:42:24;;;;;;;0.30;0.20;;;19.00;86.80;;;;;;5068648;28;20418;-73
2024/03/28 11:44:49;;;;;;;0.30;0.20;;;19.00;86.90;;;;;;5071210;28;20680;-73
2024/03/28 11:47:21;;;;;;;8.13;1.50;;;18.90;87.80;;;;;;5071580;28;20179;-73
2024/03/28 11:49:48;;;;;;;0.30;0.20;;;18.70;88.00;;;;;;5071184;28;20184;-73
2024/03/28 11:52:15;;;;;;;2.20;2.10;;;18.60;88.10;;;;;;5069584;28;20412;-73
2024/03/28 11:54:41;;;;;;;0.37;0.30;;;18.60;88.00;;;;;;5072953;28;20472;-73
2024/03/28 11:57:07;;;;;;;0.30;0.20;;;18.60;88.30;;;;;;5070068;28;20493;-73
2024/03/28 11:59:33;;;;;;;0.30;0.20;;;18.60;88.10;;;;;;5075289;28;20457;-74
2024/03/28 12:02:04;;;;;;;0.30;0.20;;;18.60;88.10;;;;;;5076576;28;20183;-74
2024/03/28 12:04:30;;;;;;;0.30;0.20;;;18.60;87.50;;;;;;5073755;28;20189;-74
2024/03/28 12:07:02;;;;;;;0.30;0.20;;;18.60;87.30;;;;;;5085415;28;20407;-73
2024/03/28 12:09:28;;;;;;;0.30;0.20;;;18.70;87.50;;;;;;5082278;28;20428;-74
2024/03/28 12:12:05;;;;;;;0.30;0.20;;;19.00;87.10;;;;;;5082093;28;21096;-74
2024/03/28 12:14:31;;;;;;;0.30;0.20;;;19.20;86.80;;;;;;5079802;28;20627;-74
2024/03/28 12:16:57;;;;;;;0.30;0.20;;;19.30;86.40;;;;;;5079185;28;20420;-73
2024/03/28 12:19:26;;;;;;;1.03;0.50;;;19.40;85.70;;;;;;5078744;28;20193;-73
2024/03/28 12:21:52;;;;;;;0.30;0.20;;;19.30;85.50;;;;;;5078535;28;20416;-75
2024/03/28 12:24:18;;;;;;;0.30;0.20;;;19.30;86.20;;;;;;5062404;28;20653;-74
2024/03/28 12:26:45;;;;;;;0.30;0.20;;;19.30;85.10;;;;;;5078463;28;20409;-74
2024/03/28 12:29:11;;;;;;;0.30;0.20;;;19.40;85.00;;;;;;5080352;28;20761;-73
2024/03/28 12:31:36;;;;;;;0.30;0.20;;;19.40;85.20;;;;;;5080032;28;20696;-74
2024/03/28 12:34:12;;;;;;;0.30;0.20;;;19.40;85.30;;;;;;5080616;28;20223;-73
2024/03/28 12:36:39;;;;;;;0.40;0.40;;;19.30;84.80;;;;;;5082460;28;20201;-73
2024/03/28 12:39:06;;;;;;;0.30;0.20;;;19.20;85.00;;;;;;5083064;28;20444;-73
2024/03/28 12:41:32;;;;;;;0.30;0.20;;;19.20;84.90;;;;;;5074443;28;20449;-74
2024/03/28 12:44:00;;;;;;;0.30;0.20;;;19.20;85.30;;;;;;5082395;28;20464;-74
2024/03/28 12:46:26;;;;;;;0.30;0.20;;;19.30;86.20;;;;;;5068937;28;20437;-73
2024/03/28 12:48:52;;;;;;;0.30;0.20;;;19.50;85.70;;;;;;5081410;28;20444;-74
2024/03/28 12:51:18;;;;;;;0.30;0.20;;;19.60;85.30;;;;;;5084061;28;20421;-73
2024/03/28 12:53:44;;;;;;;0.30;0.20;;;19.60;84.00;;;;;;5082565;28;20469;-74
2024/03/28 12:56:10;;;;;;;0.30;0.20;;;19.70;83.90;;;;;;5076798;28;21104;-73
2024/03/28 12:58:36;;;;;;;0.30;0.20;;;19.70;84.60;;;;;;5067710;28;20444;-74
2024/03/28 13:01:03;;;;;;;0.30;0.27;;;19.80;84.30;;;;;;5084575;28;20188;-74
2024/03/28 13:03:29;;;;;;;0.30;0.20;;;19.80;84.30;;;;;;5079832;28;20767;-75
2024/03/28 13:05:56;;;;;;;0.30;0.20;;;19.70;83.80;;;;;;5076381;28;20432;-74
2024/03/28 13:08:22;;;;;;;0.30;0.20;;;19.60;83.80;;;;;;5080748;28;20216;-75
2024/03/28 13:10:48;;;;;;;0.43;0.43;;;19.60;84.00;;;;;;5078999;28;20741;-75
2024/03/28 13:13:14;;;;;;;0.30;0.20;;;19.70;84.20;;;;;;5082123;28;20449;-74
2024/03/28 13:15:40;;;;;;;0.30;0.20;;;19.80;84.30;;;;;;5081721;28;20472;-74
2024/03/28 13:18:06;;;;;;;0.30;0.20;;;19.90;84.60;;;;;;5075453;28;20200;-74
2024/03/28 13:20:33;;;;;;;0.30;0.20;;;20.00;83.50;;;;;;5064504;28;20433;-75
2024/03/28 13:22:59;;;;;;;0.30;0.20;;;20.00;83.20;;;;;;5067050;28;20433;-74
2024/03/28 13:25:25;;;;;;;0.30;0.20;;;20.00;83.20;;;;;;5062448;28;20809;-74
2024/03/28 13:27:51;;;;;;;0.60;0.60;;;19.90;83.10;;;;;;5071121;28;20969;-74
2024/03/28 13:30:17;;;;;;;0.93;0.50;;;19.70;83.20;;;;;;5062471;28;20648;-73
2024/03/28 13:32:43;;;;;;;0.40;0.40;;;19.70;83.60;;;;;;5065227;28;21114;-74
2024/03/28 13:35:08;;;;;;;0.30;0.20;;;19.60;83.70;;;;;;5071227;28;20480;-74
2024/03/28 13:37:34;;;;;;;0.40;0.30;;;19.60;83.80;;;;;;5071060;28;20418;-73
2024/03/28 13:39:59;;;;;;;0.30;0.20;;;19.60;84.00;;;;;;5065986;28;20226;-74
2024/03/28 13:42:25;;;;;;;0.30;0.20;;;19.60;83.70;;;;;;5073836;28;20275;-74
2024/03/28 13:44:54;;;;;;;0.30;0.20;;;19.60;84.00;;;;;;5074162;28;20195;-75
2024/03/28 13:47:19;;;;;;;0.30;0.20;;;19.70;83.40;;;;;;5074927;28;20264;-75